Terminal Aerodrome Forecast
Issued by NWS Sioux Falls, SD

Home | Current Version | Previous Version | Graphics & Text | Print | Product List | Glossary On
Versions: 1 2 3 4 5 6 7 8 9 10 11 12 13 14 15
000
FTUS43 KFSD 181735
TAFHON
TAF
KHON 181735Z 1818/1918 19009KT P6SM FEW250
     FM190000 15009KT P6SM FEW200
     FM190800 15013KT P6SM BKN070
     FM191200 15014KT 4SM BR BKN015
     FM191400 15016G22KT P6SM BKN045=

USA.gov is the U.S. government's official web portal to all federal, state and local government web resources and services.